NCAR-RAP Real-Time Weather Data

Output produced by METARs form (08 May 2021  15:33 UTC)
found at http://weather.rap.ucar.edu/surface/
 
KRIC 081454Z 28015G22KT 10SM BKN055 17/05 A2994 RMK AO2 SLP143 T01670050 51004
KRIC 081354Z 26014G20KT 10SM CLR 15/07 A2994 RMK AO2 SLP141 T01500072
KRIC 081254Z 26010KT 10SM CLR 13/07 A2993 RMK AO2 SLP141 T01280072
KRIC 081154Z 25008KT 10SM FEW080 SCT110 09/06 A2993 RMK AO2 SLP139 70015 T00940061 10094 20056 53006
KRIC 081054Z 18004KT 10SM SCT080 BKN110 BKN250 07/06 A2993 RMK AO2 SLP138 T00720061
KRIC 080954Z 19004KT 10SM SCT070 BKN095 07/06 A2991 RMK AO2 SLP131 T00720061
KRIC 080854Z 20003KT 10SM FEW120 06/05 A2991 RMK AO2 SLP133 T00560050 55005
KRIC 080754Z 18003KT 10SM R34/3500VP6000FT CLR 06/06 A2991 RMK AO2 SLP132 T00610056
KRIC 080654Z 00000KT 9SM CLR 07/06 A2991 RMK AO2 SLP134 T00670056
KRIC 080554Z 26003KT 10SM CLR 09/08 A2992 RMK AO2 SLP138 T00890078 10117 20067 58006
KRIC 080454Z 24004KT 10SM CLR 09/08 A2994 RMK AO2 SLP142 T00940083 401890061
KRIC 080354Z 00000KT 10SM CLR 09/08 A2994 RMK AO2 SLP142 T00940078
KRIC 080254Z 30004KT 10SM CLR 09/08 A2994 RMK AO2 SLP144 T00940078 51019
KRIC 080154Z 33006KT 10SM SCT070 11/08 A2993 RMK AO2 SLP141 T01060083
KRIC 080054Z 30004KT 10SM FEW015 SCT060 BKN110 12/10 A2991 RMK AO2 SLP133 T01170100
KRIC 072356Z 30006KT 10SM FEW050 BKN075 BKN090 12/10 A2989 RMK AO2 RAE03 SLP125 P0000 60015 T01170100 10189 20117 53008
KRIC 072254Z 26008KT 10SM -RA BKN060 OVC075 12/10 A2988 RMK AO2 SLP122 P0002 T01170100
KRIC 072154Z 31009KT 9SM -RA OVC065 12/09 A2986 RMK AO2 SLP116 P0006 T01170094
KRIC 072054Z 28012G19KT 6SM RA BR OVC060 12/11 A2986 RMK AO2 SLP117 P0007 60007 T01170106 53005
KRIC 071954Z 29015G25KT 10SM -RA FEW015 SCT038 OVC080 13/09 A2985 RMK AO2 RAB20 SLP113 P0000 T01280089
KRIC 071854Z 20008KT 10SM SCT047 SCT080 BKN140 OVC300 18/06 A2983 RMK AO2 SLP107 T01830061
KRIC 071754Z 22009KT 10SM SCT047 BKN085 BKN140 OVC300 18/06 A2985 RMK AO2 SLP112 T01780061 10183 20117 58013
KRIC 071654Z 25008KT 10SM SCT044 BKN065 BKN090 OVC300 18/07 A2986 RMK AO2 SLP115 T01780072
KRIC 071554Z 20007KT 10SM BKN050 BKN075 BKN140 OVC300 18/06 A2988 RMK AO2 SLP124 T01780061
KRIC 071454Z VRB06KT 10SM SCT038 BKN140 BKN180 OVC300 17/07 A2989 RMK AO2 SLP124 T01720072 58001
KRIC 071354Z 00000KT 10SM FEW025 BKN140 BKN190 OVC300 16/09 A2989 RMK AO2 SLP125 T01560094
KRIC 071254Z 18006KT 10SM FEW065 BKN150 BKN300 14/09 A2989 RMK AO2 SLP127 T01440089
KRIC 071154Z 00000KT 10SM BKN150 BKN300 12/09 A2989 RMK AO2 SLP125 T01170094 10117 20061 58007
KRIC 071054Z 00000KT 10SM SCT220 BKN300 09/08 A2990 RMK AO2 SLP130 T00940078
KRIC 070954Z 00000KT 10SM FEW200 07/05 A2990 RMK AO2 SLP128 T00670050
KRIC 070854Z 00000KT 10SM CLR 08/06 A2991 RMK AO2 SLP132 T00780061 56013
KRIC 070754Z 00000KT 10SM CLR 08/06 A2992 RMK AO2 SLP135 T00780061
KRIC 070654Z 00000KT 10SM CLR 09/07 A2992 RMK AO2 SLP138 T00890067
KRIC 070554Z 00000KT 10SM CLR 10/07 A2995 RMK AO2 SLP145 T01000067 10161 20094 58012
KRIC 070454Z 15003KT 10SM CLR 10/07 A2996 RMK AO2 SLP150 T01000067 402000089
KRIC 070354Z 11004KT 10SM CLR 10/07 A2997 RMK AO2 SLP152 T01000067
KRIC 070254Z 11003KT 10SM CLR 12/06 A2998 RMK AO2 SLP156 T01170061 50005
KRIC 070154Z 00000KT 10SM CLR 12/06 A2998 RMK AO2 SLP157 T01170061
KRIC 070054Z 00000KT 10SM FEW065 14/04 A2997 RMK AO2 SLP154 T01440044
KRIC 062354Z 35005KT 10SM FEW065 FEW300 16/03 A2996 RMK AO2 SLP151 T01610033 10200 20161 53006
KRIC 062254Z 32008KT 10SM FEW065 FEW300 19/03 A2996 RMK AO2 SLP148 T01890033
KRIC 062154Z VRB04KT 10SM FEW065 SCT220 19/03 A2994 RMK AO2 SLP144 T01940028
KRIC 062054Z 36007KT 10SM FEW060 SCT220 BKN300 19/03 A2995 RMK AO2 SLP145 T01940033 56024
KRIC 061954Z 27005KT 10SM FEW065 SCT220 BKN300 19/03 A2997 RMK AO2 SLP151 T01940028
KRIC 061854Z 02006KT 10SM FEW060 SCT300 19/03 A2999 RMK AO2 SLP160 T01940033
KRIC 061754Z VRB05KT 10SM FEW055 SCT300 18/03 A3002 RMK AO2 SLP169 T01780033 10183 20117 58019
KRIC 061654Z VRB03KT 10SM FEW050 SCT300 17/03 A3004 RMK AO2 SLP178 T01670028
KRIC 061554Z VRB06KT 10SM FEW050 FEW300 17/03 A3007 RMK AO2 SLP186 T01670033